createdAt,value
2023-01-29T00:00:35.628Z,100148.00
2023-01-29T00:03:02.673Z,100152.31
2023-01-29T00:05:29.687Z,100137.16
2023-01-29T00:07:57.202Z,100161.84
2023-01-29T00:10:25.671Z,100155.78
2023-01-29T00:12:52.879Z,100148.47
2023-01-29T00:15:21.007Z,100142.38
2023-01-29T00:17:47.948Z,100142.25
2023-01-29T00:20:16.011Z,100146.00
2023-01-29T00:22:43.229Z,100140.00
2023-01-29T00:25:10.235Z,100134.94
2023-01-29T00:27:37.418Z,100135.91
2023-01-29T00:30:13.366Z,100132.34
2023-01-29T00:32:40.913Z,100147.06
2023-01-29T00:35:09.172Z,100139.06
2023-01-29T00:37:36.092Z,100143.22
2023-01-29T00:40:03.708Z,100132.94
2023-01-29T00:42:49.088Z,100138.16
2023-01-29T00:45:17.123Z,100137.78
2023-01-29T00:47:45.543Z,100129.75
2023-01-29T00:50:13.428Z,100121.41
2023-01-29T00:52:41.354Z,100117.94
2023-01-29T00:55:10.955Z,100124.69
2023-01-29T00:57:39.167Z,100136.56
2023-01-29T01:00:09.512Z,100109.47
2023-01-29T01:02:55.554Z,100117.53
2023-01-29T01:05:22.769Z,100127.81
2023-01-29T01:07:52.273Z,100124.22
2023-01-29T01:10:27.742Z,100120.78
2023-01-29T01:13:02.901Z,100113.69
2023-01-29T01:15:32.537Z,100112.81
2023-01-29T01:18:01.194Z,100117.81
2023-01-29T01:20:32.653Z,100127.81
2023-01-29T01:22:59.531Z,100126.84
2023-01-29T01:25:27.813Z,100119.09
2023-01-29T01:30:26.665Z,100125.09
2023-01-29T01:32:53.556Z,100124.22
2023-01-29T01:35:20.570Z,100119.34
2023-01-29T01:37:47.580Z,100115.63
2023-01-29T01:40:20.646Z,100116.25
2023-01-29T01:42:56.121Z,100115.50
2023-01-29T01:45:32.101Z,100117.88
2023-01-29T01:48:13.199Z,100101.66
2023-01-29T01:50:48.287Z,100099.25
2023-01-29T01:53:20.673Z,100099.06
2023-01-29T01:55:52.731Z,100095.03
2023-01-29T01:58:28.083Z,100090.84
2023-01-29T02:00:55.975Z,100095.53
2023-01-29T02:03:42.717Z,100089.63
2023-01-29T02:06:29.900Z,100085.47
2023-01-29T02:09:20.886Z,100084.28
2023-01-29T02:11:47.757Z,100077.56
2023-01-29T02:14:14.839Z,100076.31
2023-01-29T02:16:42.023Z,100083.13
2023-01-29T02:19:41.407Z,100072.84
2023-01-29T02:22:25.882Z,100067.97
2023-01-29T02:25:11.135Z,100064.38
2023-01-29T02:27:39.235Z,100057.56
2023-01-29T02:30:12.885Z,100048.97
2023-01-29T02:32:54.800Z,100053.97
2023-01-29T02:35:32.099Z,100041.88
2023-01-29T02:38:13.192Z,100036.47
2023-01-29T02:40:45.368Z,100043.09
2023-01-29T02:43:44.273Z,100040.31
2023-01-29T02:46:23.232Z,100024.66
2023-01-29T02:49:03.319Z,100035.78
2023-01-29T02:51:56.113Z,100028.75
2023-01-29T02:54:41.894Z,100022.47
2023-01-29T02:57:34.916Z,100009.31
2023-01-29T03:00:35.541Z,100004.16
2023-01-29T03:03:20.606Z,100006.72
2023-01-29T03:06:24.075Z,100001.03
2023-01-29T03:09:07.326Z,99999.81
2023-01-29T03:11:48.969Z,99997.88
2023-01-29T03:14:54.472Z,99997.25
2023-01-29T03:17:27.158Z,99996.19
2023-01-29T03:19:54.491Z,99989.03
2023-01-29T03:22:23.865Z,99986.19
2023-01-29T03:25:21.007Z,99972.47
2023-01-29T03:28:12.558Z,99961.78
2023-01-29T03:31:12.895Z,99969.53
2023-01-29T03:34:16.555Z,99960.31
2023-01-29T03:36:55.901Z,99953.00
2023-01-29T03:39:30.510Z,99952.72
2023-01-29T03:42:03.173Z,99943.09
2023-01-29T03:44:59.202Z,99947.19
2023-01-29T03:47:50.097Z,99938.88
2023-01-29T03:50:49.466Z,99932.47
2023-01-29T03:53:34.959Z,99927.91
2023-01-29T03:56:08.730Z,99920.69
2023-01-29T03:58:51.694Z,99920.97
2023-01-29T04:01:29.806Z,99909.78
2023-01-29T04:04:01.891Z,99914.69
2023-01-29T04:06:33.914Z,99915.28
2023-01-29T04:09:06.965Z,99912.63
2023-01-29T04:11:41.601Z,99908.47
2023-01-29T04:14:10.872Z,99902.16
2023-01-29T04:16:50.132Z,99891.97
2023-01-29T04:19:25.263Z,99905.97
2023-01-29T04:22:03.504Z,99909.00
2023-01-29T04:24:30.947Z,99910.28
2023-01-29T04:27:26.746Z,99904.56
2023-01-29T04:30:17.640Z,99893.81
2023-01-29T04:32:48.259Z,99903.75
2023-01-29T04:35:54.008Z,99903.34
2023-01-29T04:38:23.759Z,99901.53
2023-01-29T04:41:16.833Z,99886.91
2023-01-29T04:43:59.544Z,99890.97
2023-01-29T04:46:47.811Z,99893.19
2023-01-29T04:49:50.538Z,99895.03
2023-01-29T04:52:38.713Z,99888.63
2023-01-29T04:55:08.471Z,99882.03
2023-01-29T04:57:57.540Z,99884.88
2023-01-29T05:00:35.132Z,99874.22
2023-01-29T05:03:04.152Z,99879.34
2023-01-29T05:05:31.634Z,99867.66
2023-01-29T05:08:00.186Z,99859.75
2023-01-29T05:10:27.822Z,99872.53
2023-01-29T05:13:02.998Z,99868.88
2023-01-29T05:15:39.976Z,99868.22
2023-01-29T05:18:08.984Z,99869.16
2023-01-29T05:20:39.328Z,99872.53
2023-01-29T05:23:16.780Z,99885.22
2023-01-29T05:25:44.558Z,99869.63
2023-01-29T05:28:17.823Z,99870.38
2023-01-29T05:30:49.012Z,99880.84
2023-01-29T05:33:20.673Z,99886.59
2023-01-29T05:35:48.781Z,99872.31
2023-01-29T05:38:16.596Z,99884.34
2023-01-29T05:40:44.413Z,99876.00
2023-01-29T05:43:23.423Z,99877.59
2023-01-29T05:46:00.901Z,99877.94
2023-01-29T05:48:29.165Z,99882.47
2023-01-29T05:51:03.911Z,99882.47
2023-01-29T05:53:31.506Z,99885.44
2023-01-29T05:56:01.505Z,99883.34
2023-01-29T05:58:30.101Z,99889.31
2023-01-29T06:00:56.932Z,99888.53
2023-01-29T06:03:23.863Z,99890.63
2023-01-29T06:05:50.861Z,99882.53
2023-01-29T06:08:17.742Z,99881.25
2023-01-29T06:10:44.601Z,99885.72
2023-01-29T06:13:11.496Z,99879.19
2023-01-29T06:15:40.892Z,99880.44
2023-01-29T06:18:09.538Z,99880.44
2023-01-29T06:20:37.338Z,99871.84
2023-01-29T06:23:04.162Z,99856.56
2023-01-29T06:25:31.273Z,99861.09
2023-01-29T06:27:59.538Z,99858.66
2023-01-29T06:30:26.609Z,99861.44
2023-01-29T06:32:58.912Z,99855.72
2023-01-29T06:35:26.345Z,99864.06
2023-01-29T06:37:53.294Z,99857.25
2023-01-29T06:40:20.329Z,99858.53
2023-01-29T06:42:47.210Z,99868.63
2023-01-29T06:45:14.293Z,99863.00
2023-01-29T06:47:41.197Z,99865.97
2023-01-29T06:50:08.557Z,99864.97
2023-01-29T06:52:35.480Z,99856.06
2023-01-29T06:55:02.329Z,99839.97
2023-01-29T06:57:30.218Z,99837.06
2023-01-29T06:59:57.156Z,99838.00
2023-01-29T07:02:24.183Z,99825.34
2023-01-29T07:04:51.106Z,99820.19
2023-01-29T07:07:18.575Z,99820.75
2023-01-29T07:09:45.825Z,99811.72
2023-01-29T07:12:12.728Z,99824.75
2023-01-29T07:14:39.679Z,99828.78
2023-01-29T07:17:06.957Z,99821.94
2023-01-29T07:19:33.891Z,99818.84
2023-01-29T07:22:03.293Z,99810.47
2023-01-29T07:24:30.544Z,99817.38
2023-01-29T07:26:57.661Z,99811.22
2023-01-29T07:29:24.487Z,99809.16
2023-01-29T07:31:51.541Z,99807.97
2023-01-29T07:34:18.565Z,99799.69
2023-01-29T07:36:47.791Z,99791.13
2023-01-29T07:39:15.144Z,99797.94
2023-01-29T07:41:42.182Z,99800.41
2023-01-29T07:44:15.947Z,99798.16
2023-01-29T07:46:43.233Z,99794.84
2023-01-29T07:49:10.080Z,99794.84
2023-01-29T07:51:37.136Z,99791.38
2023-01-29T07:54:04.258Z,99786.84
2023-01-29T07:56:31.127Z,99784.13
2023-01-29T07:58:58.177Z,99789.25
2023-01-29T08:01:25.228Z,99793.31
2023-01-29T08:03:52.195Z,99775.31
2023-01-29T08:06:19.757Z,99791.38
2023-01-29T08:08:46.827Z,99787.88
2023-01-29T08:11:14.051Z,99780.38
2023-01-29T08:13:48.481Z,99777.16
2023-01-29T08:16:16.656Z,99762.41
2023-01-29T08:18:47.896Z,99765.75
2023-01-29T08:21:15.342Z,99768.50
2023-01-29T08:23:42.313Z,99766.72
2023-01-29T08:26:09.395Z,99764.81
2023-01-29T08:28:36.549Z,99757.72
2023-01-29T08:31:03.591Z,99759.13
2023-01-29T08:33:39.016Z,99759.59
2023-01-29T08:36:07.093Z,99761.94
2023-01-29T08:38:34.064Z,99768.75
2023-01-29T08:41:01.128Z,99769.03
2023-01-29T08:43:28.038Z,99760.28
2023-01-29T08:45:55.011Z,99764.88
2023-01-29T08:48:21.942Z,99756.38
2023-01-29T08:50:48.811Z,99756.63
2023-01-29T08:53:15.846Z,99761.09
2023-01-29T08:55:42.841Z,99763.44
2023-01-29T08:58:11.642Z,99743.69
2023-01-29T09:00:39.430Z,99755.56
2023-01-29T09:03:08.023Z,99749.69
2023-01-29T09:05:36.176Z,99753.06
2023-01-29T09:08:03.525Z,99750.97
2023-01-29T09:10:30.744Z,99741.25
2023-01-29T09:12:57.782Z,99740.84
2023-01-29T09:15:24.852Z,99752.97
2023-01-29T09:17:52.088Z,99748.38
2023-01-29T09:20:19.687Z,99746.78
2023-01-29T09:22:47.204Z,99750.31
2023-01-29T09:25:14.736Z,99728.22
2023-01-29T09:27:42.186Z,99743.69
2023-01-29T09:30:09.747Z,99739.22
2023-01-29T09:32:52.671Z,99728.38
2023-01-29T09:35:21.779Z,99723.47
2023-01-29T09:37:49.667Z,99721.75
2023-01-29T09:40:27.462Z,99710.28
2023-01-29T09:43:19.320Z,99717.28
2023-01-29T09:45:55.335Z,99706.41
2023-01-29T09:48:27.473Z,99722.06
2023-01-29T09:50:57.119Z,99714.19
2023-01-29T09:53:34.897Z,99713.97
2023-01-29T09:56:23.825Z,99713.28
2023-01-29T09:58:50.879Z,99700.19
2023-01-29T10:01:37.448Z,99685.75
2023-01-29T10:04:19.772Z,99687.81
2023-01-29T10:06:46.669Z,99689.41
2023-01-29T10:09:57.782Z,99680.00
2023-01-29T10:12:36.831Z,99677.88
2023-01-29T10:15:29.835Z,99676.47
2023-01-29T10:18:41.625Z,99670.81
2023-01-29T10:21:11.763Z,99657.72
2023-01-29T10:23:49.782Z,99646.06
2023-01-29T10:26:18.714Z,99640.59
2023-01-29T10:28:50.828Z,99636.78
2023-01-29T10:31:29.408Z,99633.63
2023-01-29T10:34:03.123Z,99632.38
2023-01-29T10:36:44.184Z,99613.44
2023-01-29T10:39:21.924Z,99614.81
2023-01-29T10:42:05.964Z,99603.03
2023-01-29T10:44:35.898Z,99597.25
2023-01-29T10:47:33.875Z,99598.81
2023-01-29T10:50:13.019Z,99598.91
2023-01-29T10:53:05.056Z,99598.56
2023-01-29T10:55:35.156Z,99593.81
2023-01-29T10:58:46.820Z,99598.44
2023-01-29T11:01:14.223Z,99583.91
2023-01-29T11:03:41.183Z,99581.13
2023-01-29T11:06:28.054Z,99574.72
2023-01-29T11:09:06.228Z,99585.44
2023-01-29T11:11:50.938Z,99580.50
2023-01-29T11:14:20.599Z,99576.09
2023-01-29T11:16:49.227Z,99564.44
2023-01-29T11:19:17.275Z,99562.50
2023-01-29T11:21:58.433Z,99569.97
2023-01-29T11:24:26.095Z,99567.66
2023-01-29T11:26:57.252Z,99569.47
2023-01-29T11:29:30.139Z,99570.13
2023-01-29T11:31:59.074Z,99563.84
2023-01-29T11:34:31.178Z,99562.00
2023-01-29T11:37:15.152Z,99566.91
2023-01-29T11:39:47.365Z,99563.81
2023-01-29T11:42:22.391Z,99558.75
2023-01-29T11:44:50.073Z,99550.25
2023-01-29T11:47:16.977Z,99546.91
2023-01-29T11:49:55.448Z,99544.19
2023-01-29T11:52:25.784Z,99547.69
2023-01-29T11:55:03.241Z,99545.97
2023-01-29T11:57:41.273Z,99543.09
2023-01-29T12:00:24.154Z,99525.59
2023-01-29T12:02:59.166Z,99533.78
2023-01-29T12:05:27.407Z,99533.16
2023-01-29T12:08:00.467Z,99531.09
2023-01-29T12:10:35.587Z,99529.09
2023-01-29T12:13:06.901Z,99543.00
2023-01-29T12:15:34.216Z,99533.16
2023-01-29T12:18:07.421Z,99529.81
2023-01-29T12:20:46.803Z,99531.31
2023-01-29T12:23:31.667Z,99529.81
2023-01-29T12:26:09.193Z,99530.56
2023-01-29T12:28:51.179Z,99527.25
2023-01-29T12:31:36.891Z,99535.88
2023-01-29T12:34:43.631Z,99532.34
2023-01-29T12:37:49.030Z,99533.50
2023-01-29T13:03:27.584Z,99519.75
2023-01-29T13:05:59.373Z,99525.44
2023-01-29T13:08:40.001Z,99533.53
2023-01-29T13:11:22.641Z,99525.16
2023-01-29T13:13:54.771Z,99515.50
2023-01-29T13:16:37.847Z,99518.34
2023-01-29T13:19:18.626Z,99508.25
2023-01-29T13:21:46.610Z,99501.72
2023-01-29T13:24:17.607Z,99506.72
2023-01-29T13:26:46.528Z,99494.25
2023-01-29T13:29:25.380Z,99503.34
2023-01-29T13:31:55.447Z,99507.38
2023-01-29T13:34:31.666Z,99508.22
2023-01-29T13:37:21.010Z,99502.66
2023-01-29T13:39:52.577Z,99500.28
2023-01-29T13:42:22.049Z,99508.72
2023-01-29T13:44:55.660Z,99507.16
2023-01-29T13:47:27.939Z,99503.63
2023-01-29T13:49:57.167Z,99498.66
2023-01-29T13:52:53.356Z,99504.28
2023-01-29T13:55:26.378Z,99502.66
2023-01-29T13:57:56.248Z,99498.09
2023-01-29T14:00:25.222Z,99491.69
2023-01-29T14:02:55.326Z,99482.66
2023-01-29T14:05:31.225Z,99490.38
2023-01-29T14:08:01.637Z,99493.13
2023-01-29T14:10:36.167Z,99484.31
2023-01-29T14:13:18.336Z,99477.69
2023-01-29T14:16:06.297Z,99477.41
2023-01-29T14:18:35.268Z,99477.44
2023-01-29T14:21:14.261Z,99471.91
2023-01-29T14:23:49.969Z,99472.97
2023-01-29T14:26:55.445Z,99472.63
2023-01-29T14:29:35.107Z,99472.09
2023-01-29T14:32:08.059Z,99468.78
2023-01-29T14:34:41.733Z,99464.22
2023-01-29T14:37:18.877Z,99476.72
2023-01-29T14:39:52.186Z,99469.59
2023-01-29T14:42:22.206Z,99469.78
2023-01-29T14:44:59.109Z,99472.50
2023-01-29T14:47:35.059Z,99468.78
2023-01-29T14:50:23.259Z,99470.72
2023-01-29T14:52:54.160Z,99469.13
2023-01-29T14:55:37.414Z,99460.34
2023-01-29T14:58:05.134Z,99469.78
2023-01-29T15:00:37.680Z,99465.78
2023-01-29T15:03:14.809Z,99459.28
2023-01-29T15:05:43.124Z,99449.66
2023-01-29T15:08:21.369Z,99451.38
2023-01-29T15:11:16.056Z,99456.75
2023-01-29T15:14:25.603Z,99452.53
2023-01-29T15:16:56.030Z,99454.91
2023-01-29T15:19:33.023Z,99455.28
2023-01-29T15:22:08.211Z,99436.34
2023-01-29T15:24:36.559Z,99447.84
2023-01-29T15:27:04.107Z,99461.88
2023-01-29T15:29:31.287Z,99457.00
2023-01-29T15:31:58.987Z,99463.94
2023-01-29T15:34:26.439Z,99462.00
2023-01-29T15:36:53.516Z,99455.69
2023-01-29T15:39:21.620Z,99458.06
2023-01-29T15:41:50.939Z,99457.22
2023-01-29T15:44:23.301Z,99467.81
2023-01-29T15:46:56.058Z,99462.53
2023-01-29T15:49:31.371Z,99459.53
2023-01-29T15:52:00.990Z,99453.03
2023-01-29T15:54:31.613Z,99453.53
2023-01-29T15:56:59.402Z,99440.34
2023-01-29T15:59:30.878Z,99439.94
2023-01-29T16:01:58.266Z,99454.00
2023-01-29T16:04:29.124Z,99441.25
2023-01-29T16:06:58.351Z,99439.94
2023-01-29T16:09:27.395Z,99445.84
2023-01-29T16:11:57.849Z,99441.31
2023-01-29T16:14:26.855Z,99426.66
2023-01-29T16:16:54.763Z,99427.56
2023-01-29T16:19:27.202Z,99430.94
2023-01-29T16:22:03.112Z,99433.19
2023-01-29T16:24:32.597Z,99432.53
2023-01-29T16:27:02.138Z,99438.34
2023-01-29T16:29:32.051Z,99444.13
2023-01-29T16:32:02.566Z,99438.00
2023-01-29T16:34:33.978Z,99426.56
2023-01-29T16:37:03.441Z,99421.44
2023-01-29T16:39:34.590Z,99409.81
2023-01-29T16:42:10.878Z,99427.06
2023-01-29T16:44:45.494Z,99431.03
2023-01-29T16:47:43.856Z,99431.44
2023-01-29T16:50:40.507Z,99434.69
2023-01-29T16:53:35.718Z,99432.28
2023-01-29T16:56:05.925Z,99417.53
2023-01-29T16:58:33.099Z,99413.47
2023-01-29T17:01:10.874Z,99415.16
2023-01-29T17:03:39.921Z,99409.69
2023-01-29T17:06:21.957Z,99418.97
2023-01-29T17:08:49.661Z,99399.88
2023-01-29T17:11:44.993Z,99405.34
2023-01-29T17:14:19.364Z,99396.59
2023-01-29T17:16:53.357Z,99399.63
2023-01-29T17:19:20.898Z,99388.38
2023-01-29T17:21:48.049Z,99385.03
2023-01-29T17:24:15.139Z,99391.09
2023-01-29T17:26:42.405Z,99385.03
2023-01-29T17:29:15.676Z,99392.66
2023-01-29T17:31:43.461Z,99399.84
2023-01-29T17:34:14.982Z,99397.72
2023-01-29T17:36:43.345Z,99387.34
2023-01-29T17:39:17.795Z,99403.91
2023-01-29T17:41:54.018Z,99399.13
2023-01-29T17:44:21.700Z,99394.53
2023-01-29T17:46:48.848Z,99398.22
2023-01-29T17:49:25.539Z,99393.94
2023-01-29T17:51:53.828Z,99392.75
2023-01-29T17:54:22.266Z,99388.97
2023-01-29T17:56:50.199Z,99390.03
2023-01-29T17:59:19.933Z,99391.44
2023-01-29T18:01:47.628Z,99376.50
2023-01-29T18:04:15.647Z,99373.47
2023-01-29T18:06:44.096Z,99382.13
2023-01-29T18:09:16.220Z,99381.31
2023-01-29T18:11:43.590Z,99368.72
2023-01-29T18:14:14.043Z,99375.19
2023-01-29T18:16:43.470Z,99371.75
2023-01-29T18:19:14.671Z,99375.19
2023-01-29T18:21:41.682Z,99374.66
2023-01-29T18:24:08.993Z,99373.13
2023-01-29T18:26:36.247Z,99366.06
2023-01-29T18:29:04.800Z,99367.31
2023-01-29T18:31:32.247Z,99371.72
2023-01-29T18:33:59.319Z,99365.66
2023-01-29T18:36:26.375Z,99356.78
2023-01-29T18:38:53.417Z,99364.31
2023-01-29T18:41:20.371Z,99367.91
2023-01-29T18:43:47.338Z,99366.84
2023-01-29T18:46:14.455Z,99357.03
2023-01-29T18:48:42.726Z,99360.94
2023-01-29T18:51:09.897Z,99357.97
2023-01-29T18:53:36.983Z,99361.66
2023-01-29T18:56:05.821Z,99364.72
2023-01-29T18:58:36.979Z,99361.91
2023-01-29T19:01:09.364Z,99356.59
2023-01-29T19:03:37.386Z,99363.44
2023-01-29T19:06:06.521Z,99367.00
2023-01-29T19:08:34.362Z,99361.44
2023-01-29T19:11:04.037Z,99349.69
2023-01-29T19:13:32.274Z,99344.00
2023-01-29T19:15:59.329Z,99341.69
2023-01-29T19:18:27.083Z,99332.88
2023-01-29T19:20:55.259Z,99329.88
2023-01-29T19:23:22.361Z,99332.69
2023-01-29T19:25:49.346Z,99334.44
2023-01-29T19:28:16.460Z,99333.84
2023-01-29T19:30:43.509Z,99340.34
2023-01-29T19:33:10.850Z,99326.84
2023-01-29T19:35:37.807Z,99322.78
2023-01-29T19:38:05.244Z,99316.63
2023-01-29T19:40:32.236Z,99323.72
2023-01-29T19:42:59.590Z,99319.84
2023-01-29T19:45:49.885Z,99311.88
2023-01-29T19:48:17.104Z,99308.31
2023-01-29T19:50:50.526Z,99311.63
2023-01-29T19:53:17.409Z,99314.88
2023-01-29T19:55:44.233Z,99313.50
2023-01-29T19:58:11.175Z,99318.59
2023-01-29T20:00:38.052Z,99308.50
2023-01-29T20:03:04.941Z,99309.75
2023-01-29T20:05:31.862Z,99318.94
2023-01-29T20:07:58.721Z,99309.94
2023-01-29T20:10:27.692Z,99296.00
2023-01-29T20:12:54.563Z,99300.09
2023-01-29T20:15:22.551Z,99292.00
2023-01-29T20:17:49.601Z,99290.16
2023-01-29T20:20:17.700Z,99281.25
2023-01-29T20:22:44.874Z,99277.03
2023-01-29T20:25:13.764Z,99269.06
2023-01-29T20:27:40.950Z,99267.97
2023-01-29T20:30:08.502Z,99271.72
2023-01-29T20:32:35.532Z,99265.78
2023-01-29T20:35:02.702Z,99259.41
2023-01-29T20:37:29.609Z,99256.66
2023-01-29T20:39:56.491Z,99260.34
2023-01-29T20:42:23.452Z,99262.47
2023-01-29T20:44:50.361Z,99250.59
2023-01-29T20:47:17.332Z,99251.34
2023-01-29T20:49:44.268Z,99263.91
2023-01-29T20:52:12.549Z,99263.28
2023-01-29T20:54:40.297Z,99253.28
2023-01-29T20:57:07.298Z,99254.94
2023-01-29T20:59:34.258Z,99243.97
2023-01-29T21:02:01.090Z,99249.81
2023-01-29T21:04:28.294Z,99253.03
2023-01-29T21:06:55.257Z,99260.19
2023-01-29T21:09:22.168Z,99251.69
2023-01-29T21:11:49.231Z,99245.13
2023-01-29T21:14:16.199Z,99242.84
2023-01-29T21:16:43.387Z,99240.78
2023-01-29T21:19:14.559Z,99224.47
2023-01-29T21:21:41.492Z,99226.34
2023-01-29T21:24:09.408Z,99231.72
2023-01-29T21:26:39.366Z,99228.41
2023-01-29T21:29:06.831Z,99233.63
2023-01-29T21:31:34.594Z,99236.53
2023-01-29T21:34:01.943Z,99240.91
2023-01-29T21:36:28.952Z,99240.25
2023-01-29T21:38:55.992Z,99233.72
2023-01-29T21:41:43.204Z,99225.91
2023-01-29T21:44:10.807Z,99225.16
2023-01-29T21:46:37.803Z,99225.91
2023-01-29T21:49:05.137Z,99233.81
2023-01-29T21:51:32.008Z,99234.13
2023-01-29T21:53:58.979Z,99221.63
2023-01-29T21:56:25.843Z,99228.91
2023-01-29T21:58:52.837Z,99228.16
2023-01-29T22:01:38.067Z,99225.28
2023-01-29T22:04:08.737Z,99223.88
2023-01-29T22:06:35.705Z,99227.22
2023-01-29T22:09:02.607Z,99229.41
2023-01-29T22:11:30.399Z,99209.00
2023-01-29T22:13:57.269Z,99216.47
2023-01-29T22:16:24.137Z,99209.16
2023-01-29T22:18:51.076Z,99195.59
2023-01-29T22:21:18.015Z,99197.56
2023-01-29T22:23:49.526Z,99198.00
2023-01-29T22:26:17.000Z,99195.38
2023-01-29T22:28:44.047Z,99182.09
2023-01-29T22:31:11.755Z,99182.47
2023-01-29T22:33:38.744Z,99179.59
2023-01-29T22:36:06.133Z,99172.13
2023-01-29T22:38:33.025Z,99170.81
2023-01-29T22:41:01.669Z,99155.75
2023-01-29T22:43:29.436Z,99153.38
2023-01-29T22:45:59.379Z,99152.91
2023-01-29T22:48:27.044Z,99145.66
2023-01-29T22:51:10.152Z,99137.41
2023-01-29T22:53:39.426Z,99146.28
2023-01-29T22:56:07.273Z,99139.78
2023-01-29T22:58:34.499Z,99148.13
2023-01-29T23:01:01.491Z,99142.91
2023-01-29T23:03:28.638Z,99139.53
2023-01-29T23:05:55.569Z,99138.13
2023-01-29T23:08:22.549Z,99134.84
2023-01-29T23:10:49.424Z,99141.81
2023-01-29T23:13:16.493Z,99138.31
2023-01-29T23:15:43.886Z,99125.09
2023-01-29T23:18:11.204Z,99119.59
2023-01-29T23:20:38.946Z,99109.78
2023-01-29T23:23:05.841Z,99117.75
2023-01-29T23:25:51.509Z,99118.94
2023-01-29T23:28:18.623Z,99117.03
2023-01-29T23:30:45.640Z,99113.03
2023-01-29T23:33:12.645Z,99114.66
2023-01-29T23:35:39.877Z,99102.25
2023-01-29T23:38:06.758Z,99116.03
2023-01-29T23:40:33.668Z,99101.97
2023-01-29T23:43:00.581Z,99098.50
2023-01-29T23:45:27.489Z,99095.41
2023-01-29T23:47:54.371Z,99087.59
2023-01-29T23:50:21.319Z,99083.66
2023-01-29T23:52:48.434Z,99080.16
2023-01-29T23:55:15.459Z,99076.22
2023-01-29T23:57:42.506Z,99075.13
